LFLS 200000Z AUTO 22003KT CAVOK 18/11 Q1025 LFLS 192330Z AUTO 21006KT CAVOK 19/11 Q1025 LFLS 192300Z AUTO 22006KT CAVOK 20/10 Q1025 LFLS 192230Z AUTO 22007KT 200V260 CAVOK 21/10 Q1025 LFLS 192200Z AUTO 22009KT CAVOK 21/10 Q1024 LFLS 192130Z AUTO 23010KT CAVOK 22/10 Q1024 LFLS 192100Z AUTO 24008KT 190V270 CAVOK 22/10 Q1024 LFLS 192030Z AUTO 24008KT 210V280 CAVOK 22/11 Q1024 LFLS 192000Z AUTO 23006KT 200V280 CAVOK 23/11 Q1024 LFLS 191930Z AUTO 25007KT CAVOK 23/10 Q1023 LFLS 191900Z AUTO 24007KT 210V270 CAVOK 24/11 Q1023 NOSIG LFLS 191830Z AUTO 24008KT 200V270 CAVOK 25/12 Q1023 NOSIG LFLS 191800Z AUTO 28006KT 220V330 CAVOK 26/14 Q1023 NOSIG LFLS 191730Z AUTO 23008KT 190V260 CAVOK 26/14 Q1023 NOSIG LFLS 191700Z AUTO 23011KT 9000 NSC 28/14 Q1023 TEMPO 22015G30KT FEW065CB LFLS 191630Z AUTO 21013KT 170V250 8000 NSC 28/15 Q1023 TEMPO 22015G30KT FEW065CB LFLS 191600Z AUTO 20010KT 170V240 8000 NSC 29/15 Q1022 TEMPO 22015G30KT FEW065CB LFLS 191530Z AUTO 22012KT 190V260 8000 3900 NSC 28/15 Q1022 TEMPO 22015G30KT FEW065CB LFLS 191500Z AUTO 22015KT 190V250 9000 4100 NSC 29/14 Q1023 TEMPO 22015G30KT FEW065CB LFLS 191430Z AUTO 22012KT 180V240 9999 3800 NSC 29/15 Q1023 TEMPO 22015G30KT FEW065CB LFLS 191400Z AUTO 21013KT 9999 4700 NSC 29/15 Q1023 TEMPO 22015G30KT FEW065CB LFLS 191330Z AUTO 21010KT 170V240 CAVOK 29/16 Q1023 TEMPO 22015G30KT FEW065CB LFLS 191300Z AUTO 22010KT 190V250 CAVOK 28/16 Q1023 NOSIG LFLS 191230Z AUTO 23008KT 190V260 CAVOK 28/16 Q1023 NOSIG LFLS 191200Z AUTO 21011KT CAVOK 28/15 Q1023 NOSIG LFLS 191130Z AUTO 21011KT 180V240 CAVOK 27/15 Q1023 NOSIG LFLS 191100Z AUTO 20008KT CAVOK 26/15 Q1023 NOSIG LFLS 191030Z AUTO 20007KT 170V240 9999 //////TCU 26/15 Q1024 BECMG NSC LFLS 191000Z AUTO 21008KT 170V240 CAVOK 25/15 Q1024 NOSIG LFLS 190930Z AUTO 18007KT 140V210 CAVOK 25/14 Q1024 NOSIG LFLS 190900Z AUTO 20008KT 170V230 CAVOK 25/14 Q1024 NOSIG LFLS 190830Z AUTO 21006KT 160V250 CAVOK 24/14 Q1024 NOSIG LFLS 190800Z AUTO 21010KT 190V250 CAVOK 23/14 Q1024 NOSIG LFLS 190730Z AUTO 21010KT 180V240 CAVOK 23/13 Q1024 NOSIG LFLS 190700Z AUTO 20004KT 150V250 CAVOK 21/14 Q1024 NOSIG LFLS 190630Z AUTO VRB02KT CAVOK 21/15 Q1024 NOSIG LFLS 190600Z AUTO VRB02KT CAVOK 20/15 Q1024 NOSIG LFLS 190530Z AUTO VRB02KT CAVOK 19/14 Q1023 NOSIG LFLS 190500Z AUTO 18007KT 150V210 CAVOK 18/14 Q1023 NOSIG LFLS 190430Z AUTO 16003KT 090V220 CAVOK 17/14 Q1023 NOSIG LFLS 190400Z AUTO 01003KT CAVOK 16/13 Q1022 NOSIG LFLS 190330Z AUTO VRB03KT CAVOK 17/13 Q1022 NOSIG LFLS 190300Z AUTO VRB02KT CAVOK 18/13 Q1022 NOSIG LFLS 190230Z AUTO 19006KT 160V220 CAVOK 19/13 Q1022 LFLS 190200Z AUTO 18003KT 130V230 CAVOK 18/13 Q1022 LFLS 190130Z AUTO 00000KT CAVOK 18/14 Q1022 LFLS 190100Z AUTO 19004KT 130V220 CAVOK 20/14 Q1021 LFLS 190030Z AUTO 16007KT 120V190 CAVOK 20/14 Q1021 LFLS 190000Z AUTO 21003KT 180V270 CAVOK 20/14 Q1021 LFLS 182330Z AUTO VRB02KT CAVOK 20/14 Q1021 LFLS 182300Z AUTO 15003KT 090V210 CAVOK 21/14 Q1021 LFLS 182230Z AUTO 19005KT 120V240 CAVOK 22/15 Q1021 NOSIG LFLS 182200Z AUTO 36005KT 310V060 9999 FEW074 21/15 Q1021 BECMG 21010KT LFLS 182130Z AUTO VRB03KT CAVOK 23/15 Q1021 NOSIG LFLS 182100Z AUTO 21010KT CAVOK 23/15 Q1020 NOSIG LFLS 182030Z AUTO 21006KT 160V280 CAVOK 23/15 Q1020 NOSIG LFLS 182000Z AUTO VRB03KT CAVOK 21/16 Q1020 NOSIG LFLS 181930Z AUTO 10003KT CAVOK 21/15 Q1019 BECMG 21010KT LFLS 181900Z AUTO 10003KT CAVOK 24/16 Q1019 BECMG 21010KT LFLS 181830Z AUTO 15003KT CAVOK 27/15 Q1019 BECMG 21010KT LFLS 181800Z AUTO 18003KT CAVOK 28/13 Q1019 NOSIG LFLS 181730Z AUTO 18004KT 150V210 CAVOK 29/12 Q1019 NOSIG LFLS 181700Z AUTO 19004KT 150V230 CAVOK 29/12 Q1019 NOSIG LFLS 181630Z AUTO 22006KT CAVOK 30/11 Q1019 NOSIG LFLS 181600Z AUTO 22005KT 190V270 CAVOK 30/12 Q1018 NOSIG LFLS 181530Z AUTO 24006KT CAVOK 30/11 Q1019 NOSIG LFLS 181500Z AUTO 24005KT 140V290 CAVOK 30/11 Q1019 NOSIG LFLS 181430Z AUTO VRB03KT CAVOK 30/13 Q1019 NOSIG LFLS 181400Z AUTO VRB03KT CAVOK 30/12 Q1019 NOSIG LFLS 181330Z AUTO 07003KT 360V130 CAVOK 30/11 Q1019 NOSIG LFLS 181300Z AUTO 11004KT 030V190 CAVOK 30/13 Q1019 NOSIG LFLS 181230Z AUTO 35006KT 310V040 CAVOK 29/13 Q1020 NOSIG

METAR Messwerte "GRENOBLE/ST. GEO" LFLS

Zurück zur Übersicht

Ortsname
Ländercode / m ü. NN
Zeit Temperatur Taupunkt Rel.
Luftfeuchte
Luftdruck:
Altimeter
NN
Station
Wind in Beaufort
(Knoten)
Sichtweite
(Meter)
Wolken
(Meter über Grund)
Wettererscheinung
GRENOBLE/ST. GEO
FR 386
Fr 20.05. 02:00181164 %1025
1025
979
SW 2 (3)>= 10000Nicht signifikant 
GRENOBLE/ST. GEO
FR 386
Fr 20.05. 01:30191160 %1025
1024
979
SSW 2 (6)>= 10000Nicht signifikant 
GRENOBLE/ST. GEO
FR 386
Fr 20.05. 01:00201053 %1025
1024
979
SW 2 (6)>= 10000Nicht signifikant 
GRENOBLE/ST. GEO
FR 386
Fr 20.05. 00:30211049 %1025
1024
979
SW 3 (7)
SSW - W
>= 10000Nicht signifikant 
GRENOBLE/ST. GEO
FR 386
Fr 20.05. 00:00211049 %1024
1023
978
SW 3 (9)>= 10000Nicht signifikant 
GRENOBLE/ST. GEO
FR 386
Do 19.05. 23:30221046 %1024
1023
978
SW 3 (10)>= 10000Nicht signifikant 
GRENOBLE/ST. GEO
FR 386
Do 19.05. 23:00221046 %1024
1023
978
WSW 3 (8)
S - W
>= 10000Nicht signifikant 
GRENOBLE/ST. GEO
FR 386
Do 19.05. 22:30221150 %1024
1023
978
WSW 3 (8)
SSW - W
>= 10000Nicht signifikant 
GRENOBLE/ST. GEO
FR 386
Do 19.05. 22:00231147 %1024
1023
978
SW 2 (6)
SSW - W
>= 10000Nicht signifikant 
GRENOBLE/ST. GEO
FR 386
Do 19.05. 21:30231044 %1023
1022
977
WSW 3 (7)>= 10000Nicht signifikant 
GRENOBLE/ST. GEO
FR 386
Do 19.05. 21:00241144 %1023
1022
977
WSW 3 (7)
SSW - W
>= 10000Nicht signifikant 
GRENOBLE/ST. GEO
FR 386
Do 19.05. 20:30251244 %1023
1022
977
WSW 3 (8)
SSW - W
>= 10000Nicht signifikant 
GRENOBLE/ST. GEO
FR 386
Do 19.05. 20:00261448 %1023
1021
977
W 2 (6)
SW - NNW
>= 10000Nicht signifikant 
GRENOBLE/ST. GEO
FR 386
Do 19.05. 19:30261448 %1023
1021
977
SW 3 (8)
S - W
>= 10000Nicht signifikant 
GRENOBLE/ST. GEO
FR 386
Do 19.05. 19:00281442 %1023
1021
977
SW 4 (11)
Bald zeitweise:
SW 4 (15) - 7 (30)
9000Nicht signifikant 
GRENOBLE/ST. GEO
FR 386
Do 19.05. 18:30281545 %1023
1021
977
SSW 4 (13)
S - WSW
Bald zeitweise:
SW 4 (15) - 7 (30)
8000Nicht signifikant 
GRENOBLE/ST. GEO
FR 386
Do 19.05. 18:00291543 %1022
1020
976
SSW 3 (10)
S - WSW
Bald zeitweise:
SW 4 (15) - 7 (30)
8000Nicht signifikant 
GRENOBLE/ST. GEO
FR 386
Do 19.05. 17:30281545 %1022
1020
976
SW 4 (12)
S - W
Bald zeitweise:
SW 4 (15) - 7 (30)
8000Nicht signifikant 
GRENOBLE/ST. GEO
FR 386
Do 19.05. 17:00291440 %1023
1021
977
SW 4 (15)
S - WSW
Bald zeitweise:
SW 4 (15) - 7 (30)
9000Nicht signifikant 
GRENOBLE/ST. GEO
FR 386
Do 19.05. 16:30291543 %1023
1021
977
SW 4 (12)
S - WSW
Bald zeitweise:
SW 4 (15) - 7 (30)
>= 10000Nicht signifikant 
GRENOBLE/ST. GEO
FR 386
Do 19.05. 16:00291543 %1023
1021
977
SSW 4 (13)
Bald zeitweise:
SW 4 (15) - 7 (30)
>= 10000Nicht signifikant 
GRENOBLE/ST. GEO
FR 386
Do 19.05. 15:30291645 %1023
1021
977
SSW 3 (10)
S - WSW
Bald zeitweise:
SW 4 (15) - 7 (30)
>= 10000Nicht signifikant 
GRENOBLE/ST. GEO
FR 386
Do 19.05. 15:00281648 %1023
1021
977
SW 3 (10)
S - WSW
>= 10000Nicht signifikant 
GRENOBLE/ST. GEO
FR 386
Do 19.05. 14:30281648 %1023
1021
977
SW 3 (8)
S - W
>= 10000Nicht signifikant 
GRENOBLE/ST. GEO
FR 386
Do 19.05. 14:00281545 %1023
1021
977
SSW 4 (11)>= 10000Nicht signifikant 
GRENOBLE/ST. GEO
FR 386
Do 19.05. 13:30271548 %1023
1021
977
SSW 4 (11)
S - WSW
>= 10000Nicht signifikant 
GRENOBLE/ST. GEO
FR 386
Do 19.05. 13:00261551 %1023
1021
977
SSW 3 (8)>= 10000Nicht signifikant 
GRENOBLE/ST. GEO
FR 386
Do 19.05. 12:30261551 %1024
1022
978
SSW 3 (7)
S - WSW
>= 10000  
GRENOBLE/ST. GEO
FR 386
Do 19.05. 12:00251554 %1024
1023
978
SSW 3 (8)
S - WSW
>= 10000Nicht signifikant 
GRENOBLE/ST. GEO
FR 386
Do 19.05. 11:30251450 %1024
1023
978
S 3 (7)
SO - SSW
>= 10000Nicht signifikant 
GRENOBLE/ST. GEO
FR 386
Do 19.05. 11:00251450 %1024
1023
978
SSW 3 (8)
S - SW
>= 10000Nicht signifikant 
GRENOBLE/ST. GEO
FR 386
Do 19.05. 10:30241454 %1024
1023
978
SSW 2 (6)
SSO - WSW
>= 10000Nicht signifikant 
GRENOBLE/ST. GEO
FR 386
Do 19.05. 10:00231457 %1024
1023
978
SSW 3 (10)
S - WSW
>= 10000Nicht signifikant 
GRENOBLE/ST. GEO
FR 386
Do 19.05. 09:30231353 %1024
1023
978
SSW 3 (10)
S - WSW
>= 10000Nicht signifikant 
GRENOBLE/ST. GEO
FR 386
Do 19.05. 09:00211464 %1024
1023
978
SSW 2 (4)
SSO - WSW
>= 10000Nicht signifikant 
GRENOBLE/ST. GEO
FR 386
Do 19.05. 08:30211569 %1024
1023
978
Uml 1 (2)>= 10000Nicht signifikant 
GRENOBLE/ST. GEO
FR 386
Do 19.05. 08:00201573 %1024
1023
978
Uml 1 (2)>= 10000Nicht signifikant 
GRENOBLE/ST. GEO
FR 386
Do 19.05. 07:30191473 %1023
1022
977
Uml 1 (2)>= 10000Nicht signifikant 
GRENOBLE/ST. GEO
FR 386
Do 19.05. 07:00181477 %1023
1023
977
S 3 (7)
SSO - SSW
>= 10000Nicht signifikant 
GRENOBLE/ST. GEO
FR 386
Do 19.05. 06:30171482 %1023
1023
977
SSO 2 (3)
O - SW
>= 10000Nicht signifikant 
GRENOBLE/ST. GEO
FR 386
Do 19.05. 06:00161382 %1022
1022
976
N 2 (3)>= 10000Nicht signifikant 
GRENOBLE/ST. GEO
FR 386
Do 19.05. 05:30171377 %1022
1022
976
Uml 2 (3)>= 10000Nicht signifikant 
GRENOBLE/ST. GEO
FR 386
Do 19.05. 05:00181373 %1022
1022
976
Uml 1 (2)>= 10000Nicht signifikant 
GRENOBLE/ST. GEO
FR 386
Do 19.05. 04:30191368 %1022
1021
976
S 2 (6)
SSO - SW
>= 10000Nicht signifikant 
GRENOBLE/ST. GEO
FR 386
Do 19.05. 04:00181373 %1022
1022
976
S 2 (3)
SO - SW
>= 10000Nicht signifikant 
GRENOBLE/ST. GEO
FR 386
Do 19.05. 03:30181477 %1022
1022
976
Windstill>= 10000Nicht signifikant 
GRENOBLE/ST. GEO
FR 386
Do 19.05. 03:00201468 %1021
1020
975
S 2 (4)
SO - SW
>= 10000Nicht signifikant 
GRENOBLE/ST. GEO
FR 386
Do 19.05. 02:30201468 %1021
1020
975
SSO 3 (7)
OSO - S
>= 10000Nicht signifikant 
GRENOBLE/ST. GEO
FR 386
Do 19.05. 02:00201468 %1021
1020
975
SSW 2 (3)
S - W
>= 10000Nicht signifikant 
GRENOBLE/ST. GEO
FR 386
Do 19.05. 01:30201468 %1021
1020
975
Uml 1 (2)>= 10000Nicht signifikant 
GRENOBLE/ST. GEO
FR 386
Do 19.05. 01:00211464 %1021
1020
975
SSO 2 (3)
O - SSW
>= 10000Nicht signifikant 
GRENOBLE/ST. GEO
FR 386
Do 19.05. 00:30221565 %1021
1020
975
S 2 (5)
OSO - WSW
>= 10000Nicht signifikant 
GRENOBLE/ST. GEO
FR 386
Do 19.05. 00:00211569 %1021
1020
975
N 2 (5)
NW - ONO
Bald Übergang zu:
SSW 3 (10)
>= 10000Leicht bewölkt (2300) 
GRENOBLE/ST. GEO
FR 386
Mi 18.05. 23:30231561 %1021
1020
975
Uml 2 (3)>= 10000Nicht signifikant 
GRENOBLE/ST. GEO
FR 386
Mi 18.05. 23:00231561 %1020
1019
974
SSW 3 (10)>= 10000Nicht signifikant 
GRENOBLE/ST. GEO
FR 386
Mi 18.05. 22:30231561 %1020
1019
974
SSW 2 (6)
SSO - W
>= 10000Nicht signifikant 
GRENOBLE/ST. GEO
FR 386
Mi 18.05. 22:00211673 %1020
1019
974
Uml 2 (3)>= 10000Nicht signifikant 
GRENOBLE/ST. GEO
FR 386
Mi 18.05. 21:30211569 %1019
1018
973
O 2 (3)
Bald Übergang zu:
SSW 3 (10)
>= 10000Nicht signifikant 
GRENOBLE/ST. GEO
FR 386
Mi 18.05. 21:00241661 %1019
1018
973
O 2 (3)
Bald Übergang zu:
SSW 3 (10)
>= 10000Nicht signifikant 
GRENOBLE/ST. GEO
FR 386
Mi 18.05. 20:30271548 %1019
1017
973
SSO 2 (3)
Bald Übergang zu:
SSW 3 (10)
>= 10000Nicht signifikant 
GRENOBLE/ST. GEO
FR 386
Mi 18.05. 20:00281340 %1019
1017
973
S 2 (3)>= 10000Nicht signifikant 
GRENOBLE/ST. GEO
FR 386
Mi 18.05. 19:30291235 %1019
1017
973
S 2 (4)
SSO - SSW
>= 10000Nicht signifikant 
GRENOBLE/ST. GEO
FR 386
Mi 18.05. 19:00291235 %1019
1017
973
S 2 (4)
SSO - SW
>= 10000Nicht signifikant 
GRENOBLE/ST. GEO
FR 386
Mi 18.05. 18:30301131 %1019
1017
973
SW 2 (6)>= 10000Nicht signifikant 
GRENOBLE/ST. GEO
FR 386
Mi 18.05. 18:00301233 %1018
1016
972
SW 2 (5)
S - W
>= 10000Nicht signifikant 
GRENOBLE/ST. GEO
FR 386
Mi 18.05. 17:30301131 %1019
1017
973
WSW 2 (6)>= 10000Nicht signifikant 
GRENOBLE/ST. GEO
FR 386
Mi 18.05. 17:00301131 %1019
1017
973
WSW 2 (5)
SO - WNW
>= 10000Nicht signifikant 
GRENOBLE/ST. GEO
FR 386
Mi 18.05. 16:30301335 %1019
1017
973
Uml 2 (3)>= 10000Nicht signifikant 
GRENOBLE/ST. GEO
FR 386
Mi 18.05. 16:00301233 %1019
1017
973
Uml 2 (3)>= 10000Nicht signifikant 
GRENOBLE/ST. GEO
FR 386
Mi 18.05. 15:30301131 %1019
1017
973
ONO 2 (3)
N - SO
>= 10000Nicht signifikant 
GRENOBLE/ST. GEO
FR 386
Mi 18.05. 15:00301335 %1019
1017
973
OSO 2 (4)
NNO - S
>= 10000Nicht signifikant 
GRENOBLE/ST. GEO
FR 386
Mi 18.05. 14:30291337 %1020
1018
974
N 2 (6)
NW - NO
>= 10000Nicht signifikant 

Altimeter: Einstellung am Altimeter (Höhenmesser), die Höhe 0 muss auf diesen Luftdruckwert zeigen, damit das Gerät die Stationshöhe richtig anzeigt.

NN: Luftdruck reduziert auf "Normal Null", auf Meereshöhe, dieser von der Temperatur abhängige Wert wird bisweilen unkorrekt einfach als "Luftdruck" bezeichnet. Eigentlich nur eine fiktive Größe, die es erlaubt, Stationen auf unterschiedlichen Höhen miteinander zu vergleichen.

Station: Realer Luftdruck an der Station.